sensor_id;sensor_type;location;lat;lon;timestamp;temperature;humidity
21312;DHT22;18076;52.154;10.570;2022-09-09T00:00:32;13.90;99.90
21312;DHT22;18076;52.154;10.570;2022-09-09T00:05:32;13.70;99.90
21312;DHT22;18076;52.154;10.570;2022-09-09T00:07:59;13.70;99.90
21312;DHT22;18076;52.154;10.570;2022-09-09T00:15:18;13.60;99.90
21312;DHT22;18076;52.154;10.570;2022-09-09T00:20:16;13.60;99.90
21312;DHT22;18076;52.154;10.570;2022-09-09T00:22:46;13.60;99.90
21312;DHT22;18076;52.154;10.570;2022-09-09T00:25:21;13.60;99.90
21312;DHT22;18076;52.154;10.570;2022-09-09T00:27:49;13.70;99.90
21312;DHT22;18076;52.154;10.570;2022-09-09T00:30:17;13.70;99.90
21312;DHT22;18076;52.154;10.570;2022-09-09T00:32:45;13.70;99.90
21312;DHT22;18076;52.154;10.570;2022-09-09T00:35:24;13.70;99.90
21312;DHT22;18076;52.154;10.570;2022-09-09T00:37:51;13.70;99.90
21312;DHT22;18076;52.154;10.570;2022-09-09T00:40:30;13.70;99.90
21312;DHT22;18076;52.154;10.570;2022-09-09T00:43:16;13.60;99.90
21312;DHT22;18076;52.154;10.570;2022-09-09T00:51:12;13.50;99.90
21312;DHT22;18076;52.154;10.570;2022-09-09T00:58:35;13.80;99.90
21312;DHT22;18076;52.154;10.570;2022-09-09T01:01:05;13.90;99.90
21312;DHT22;18076;52.154;10.570;2022-09-09T01:11:25;13.80;99.90
21312;DHT22;18076;52.154;10.570;2022-09-09T01:14:02;13.70;99.90
21312;DHT22;18076;52.154;10.570;2022-09-09T01:16:29;13.70;99.90
21312;DHT22;18076;52.154;10.570;2022-09-09T01:18:55;13.60;99.90
21312;DHT22;18076;52.154;10.570;2022-09-09T01:26:37;13.40;99.90
21312;DHT22;18076;52.154;10.570;2022-09-09T01:29:08;13.40;99.90
21312;DHT22;18076;52.154;10.570;2022-09-09T01:31:41;13.40;99.90
21312;DHT22;18076;52.154;10.570;2022-09-09T01:34:14;13.40;99.90
21312;DHT22;18076;52.154;10.570;2022-09-09T01:36:49;13.20;99.90
21312;DHT22;18076;52.154;10.570;2022-09-09T01:39:17;13.20;99.90
21312;DHT22;18076;52.154;10.570;2022-09-09T01:41:43;13.20;99.90
21312;DHT22;18076;52.154;10.570;2022-09-09T01:44:08;13.20;99.90
21312;DHT22;18076;52.154;10.570;2022-09-09T01:46:35;13.20;99.90
21312;DHT22;18076;52.154;10.570;2022-09-09T01:49:00;13.20;99.90
21312;DHT22;18076;52.154;10.570;2022-09-09T01:51:27;13.30;99.90
21312;DHT22;18076;52.154;10.570;2022-09-09T01:53:53;13.30;99.90
21312;DHT22;18076;52.154;10.570;2022-09-09T02:06:50;13.30;99.90
21312;DHT22;18076;52.154;10.570;2022-09-09T02:09:17;13.30;99.90
21312;DHT22;18076;52.154;10.570;2022-09-09T02:11:44;13.30;99.90
21312;DHT22;18076;52.154;10.570;2022-09-09T02:14:15;13.30;99.90
21312;DHT22;18076;52.154;10.570;2022-09-09T02:16:42;13.30;99.90
21312;DHT22;18076;52.154;10.570;2022-09-09T02:19:11;13.30;99.90
21312;DHT22;18076;52.154;10.570;2022-09-09T02:21:38;13.30;99.90
21312;DHT22;18076;52.154;10.570;2022-09-09T02:24:05;13.40;99.90
21312;DHT22;18076;52.154;10.570;2022-09-09T02:26:33;13.40;99.90
21312;DHT22;18076;52.154;10.570;2022-09-09T02:29:01;13.40;99.90
21312;DHT22;18076;52.154;10.570;2022-09-09T02:31:26;13.50;99.90
21312;DHT22;18076;52.154;10.570;2022-09-09T02:33:57;13.50;99.90
21312;DHT22;18076;52.154;10.570;2022-09-09T02:36:24;13.40;99.90
21312;DHT22;18076;52.154;10.570;2022-09-09T02:38:51;13.30;99.90
21312;DHT22;18076;52.154;10.570;2022-09-09T02:41:31;13.20;99.90
21312;DHT22;18076;52.154;10.570;2022-09-09T02:43:57;13.30;99.90
21312;DHT22;18076;52.154;10.570;2022-09-09T02:46:36;13.30;99.90
21312;DHT22;18076;52.154;10.570;2022-09-09T02:51:40;13.30;99.90
21312;DHT22;18076;52.154;10.570;2022-09-09T02:54:10;13.30;99.90
21312;DHT22;18076;52.154;10.570;2022-09-09T02:56:44;13.30;99.90
21312;DHT22;18076;52.154;10.570;2022-09-09T02:59:11;13.20;99.90
21312;DHT22;18076;52.154;10.570;2022-09-09T03:01:38;13.30;99.90
21312;DHT22;18076;52.154;10.570;2022-09-09T03:04:05;13.30;99.90
21312;DHT22;18076;52.154;10.570;2022-09-09T03:06:30;13.40;99.90
21312;DHT22;18076;52.154;10.570;2022-09-09T03:08:56;13.40;99.90
21312;DHT22;18076;52.154;10.570;2022-09-09T03:11:26;13.40;99.90
21312;DHT22;18076;52.154;10.570;2022-09-09T03:13:52;13.30;99.90
21312;DHT22;18076;52.154;10.570;2022-09-09T03:16:17;13.20;99.90
21312;DHT22;18076;52.154;10.570;2022-09-09T03:18:43;13.20;99.90
21312;DHT22;18076;52.154;10.570;2022-09-09T03:21:11;13.20;99.90
21312;DHT22;18076;52.154;10.570;2022-09-09T03:23:36;13.20;99.90
21312;DHT22;18076;52.154;10.570;2022-09-09T03:26:02;13.10;99.90
21312;DHT22;18076;52.154;10.570;2022-09-09T03:28:27;13.10;99.90
21312;DHT22;18076;52.154;10.570;2022-09-09T03:31:00;13.00;99.90
21312;DHT22;18076;52.154;10.570;2022-09-09T03:33:25;13.00;99.90
21312;DHT22;18076;52.154;10.570;2022-09-09T03:35:51;13.00;99.90
21312;DHT22;18076;52.154;10.570;2022-09-09T03:38:16;13.00;99.90
21312;DHT22;18076;52.154;10.570;2022-09-09T03:40:54;13.00;99.90
21312;DHT22;18076;52.154;10.570;2022-09-09T03:43:24;13.00;99.90
21312;DHT22;18076;52.154;10.570;2022-09-09T03:45:50;13.10;99.90
21312;DHT22;18076;52.154;10.570;2022-09-09T03:48:16;13.10;99.90
21312;DHT22;18076;52.154;10.570;2022-09-09T03:50:48;13.20;99.90
21312;DHT22;18076;52.154;10.570;2022-09-09T03:53:15;13.20;99.90
21312;DHT22;18076;52.154;10.570;2022-09-09T03:55:44;13.10;99.90
21312;DHT22;18076;52.154;10.570;2022-09-09T03:58:11;13.20;99.90
21312;DHT22;18076;52.154;10.570;2022-09-09T04:00:36;13.10;99.90
21312;DHT22;18076;52.154;10.570;2022-09-09T04:03:02;13.20;99.90
21312;DHT22;18076;52.154;10.570;2022-09-09T04:05:28;13.20;99.90
21312;DHT22;18076;52.154;10.570;2022-09-09T04:07:53;13.30;99.90
21312;DHT22;18076;52.154;10.570;2022-09-09T04:10:19;13.20;99.90
21312;DHT22;18076;52.154;10.570;2022-09-09T04:12:46;13.10;99.90
21312;DHT22;18076;52.154;10.570;2022-09-09T04:15:12;13.10;99.90
21312;DHT22;18076;52.154;10.570;2022-09-09T04:17:38;13.10;99.90
21312;DHT22;18076;52.154;10.570;2022-09-09T04:20:03;13.10;99.90
21312;DHT22;18076;52.154;10.570;2022-09-09T04:22:29;13.20;99.90
21312;DHT22;18076;52.154;10.570;2022-09-09T04:24:55;13.20;99.90
21312;DHT22;18076;52.154;10.570;2022-09-09T04:27:21;13.20;99.90
21312;DHT22;18076;52.154;10.570;2022-09-09T04:29:46;13.30;99.90
21312;DHT22;18076;52.154;10.570;2022-09-09T04:32:12;13.20;99.90
21312;DHT22;18076;52.154;10.570;2022-09-09T04:34:37;13.20;99.90
21312;DHT22;18076;52.154;10.570;2022-09-09T04:37:03;13.30;99.90
21312;DHT22;18076;52.154;10.570;2022-09-09T04:39:28;13.30;99.90
21312;DHT22;18076;52.154;10.570;2022-09-09T04:41:54;13.40;99.90
21312;DHT22;18076;52.154;10.570;2022-09-09T04:44:20;13.50;99.90
21312;DHT22;18076;52.154;10.570;2022-09-09T04:46:46;13.60;99.90
21312;DHT22;18076;52.154;10.570;2022-09-09T04:49:11;13.60;99.90
21312;DHT22;18076;52.154;10.570;2022-09-09T04:51:37;13.60;99.90
21312;DHT22;18076;52.154;10.570;2022-09-09T04:54:02;13.70;99.90
21312;DHT22;18076;52.154;10.570;2022-09-09T04:56:28;13.70;99.90
21312;DHT22;18076;52.154;10.570;2022-09-09T04:58:53;13.70;99.90
21312;DHT22;18076;52.154;10.570;2022-09-09T05:01:21;13.70;99.90
21312;DHT22;18076;52.154;10.570;2022-09-09T05:03:47;13.80;99.90
21312;DHT22;18076;52.154;10.570;2022-09-09T05:06:14;13.80;99.90
21312;DHT22;18076;52.154;10.570;2022-09-09T05:08:40;13.90;99.90
21312;DHT22;18076;52.154;10.570;2022-09-09T05:11:19;13.90;99.90
21312;DHT22;18076;52.154;10.570;2022-09-09T05:13:45;13.90;99.90
21312;DHT22;18076;52.154;10.570;2022-09-09T05:16:11;13.90;99.90
21312;DHT22;18076;52.154;10.570;2022-09-09T05:18:37;13.90;99.90
21312;DHT22;18076;52.154;10.570;2022-09-09T05:21:02;14.00;99.90
21312;DHT22;18076;52.154;10.570;2022-09-09T05:23:28;14.00;99.90
21312;DHT22;18076;52.154;10.570;2022-09-09T05:25:57;14.10;99.90
21312;DHT22;18076;52.154;10.570;2022-09-09T05:28:23;14.30;99.90
21312;DHT22;18076;52.154;10.570;2022-09-09T05:30:59;14.40;99.90
21312;DHT22;18076;52.154;10.570;2022-09-09T05:33:26;14.40;99.90
21312;DHT22;18076;52.154;10.570;2022-09-09T05:35:58;14.40;99.90
21312;DHT22;18076;52.154;10.570;2022-09-09T05:38:24;14.50;99.90
21312;DHT22;18076;52.154;10.570;2022-09-09T05:40:51;14.50;99.90
21312;DHT22;18076;52.154;10.570;2022-09-09T05:43:17;14.60;99.90
21312;DHT22;18076;52.154;10.570;2022-09-09T05:45:43;14.70;99.90
21312;DHT22;18076;52.154;10.570;2022-09-09T05:48:09;14.80;99.90
21312;DHT22;18076;52.154;10.570;2022-09-09T05:50:34;14.80;99.90
21312;DHT22;18076;52.154;10.570;2022-09-09T05:53:00;14.90;99.90
21312;DHT22;18076;52.154;10.570;2022-09-09T05:55:25;14.90;99.90
21312;DHT22;18076;52.154;10.570;2022-09-09T05:57:51;14.90;99.90
21312;DHT22;18076;52.154;10.570;2022-09-09T06:00:17;15.00;99.90
21312;DHT22;18076;52.154;10.570;2022-09-09T06:02:43;15.10;99.90
21312;DHT22;18076;52.154;10.570;2022-09-09T06:05:09;15.20;99.90
21312;DHT22;18076;52.154;10.570;2022-09-09T06:07:36;15.70;99.90
21312;DHT22;18076;52.154;10.570;2022-09-09T06:10:01;16.60;99.90
21312;DHT22;18076;52.154;10.570;2022-09-09T06:12:27;17.10;99.90
21312;DHT22;18076;52.154;10.570;2022-09-09T06:14:52;17.50;99.90
21312;DHT22;18076;52.154;10.570;2022-09-09T06:17:18;18.00;99.90
21312;DHT22;18076;52.154;10.570;2022-09-09T06:19:43;18.60;99.90
21312;DHT22;18076;52.154;10.570;2022-09-09T06:22:09;19.10;99.90
21312;DHT22;18076;52.154;10.570;2022-09-09T06:24:37;19.60;99.90
21312;DHT22;18076;52.154;10.570;2022-09-09T06:27:03;19.70;99.90
21312;DHT22;18076;52.154;10.570;2022-09-09T06:29:28;19.70;99.90
21312;DHT22;18076;52.154;10.570;2022-09-09T06:31:54;19.40;99.90
21312;DHT22;18076;52.154;10.570;2022-09-09T06:34:19;19.30;99.90
21312;DHT22;18076;52.154;10.570;2022-09-09T06:36:45;19.20;99.90
21312;DHT22;18076;52.154;10.570;2022-09-09T06:39:11;19.40;99.90
21312;DHT22;18076;52.154;10.570;2022-09-09T06:41:37;19.70;99.90
21312;DHT22;18076;52.154;10.570;2022-09-09T06:44:03;19.90;99.90
21312;DHT22;18076;52.154;10.570;2022-09-09T06:46:30;19.70;99.90
21312;DHT22;18076;52.154;10.570;2022-09-09T06:48:58;19.70;99.90
21312;DHT22;18076;52.154;10.570;2022-09-09T06:51:34;20.00;99.90
21312;DHT22;18076;52.154;10.570;2022-09-09T06:54:01;20.10;99.90
21312;DHT22;18076;52.154;10.570;2022-09-09T06:56:34;20.30;99.90
21312;DHT22;18076;52.154;10.570;2022-09-09T06:59:02;20.60;99.90
21312;DHT22;18076;52.154;10.570;2022-09-09T07:01:30;20.60;99.90
21312;DHT22;18076;52.154;10.570;2022-09-09T07:03:56;20.80;99.90
21312;DHT22;18076;52.154;10.570;2022-09-09T07:08:50;20.90;99.90
21312;DHT22;18076;52.154;10.570;2022-09-09T07:11:16;20.60;99.90
21312;DHT22;18076;52.154;10.570;2022-09-09T07:13:41;20.10;99.90
21312;DHT22;18076;52.154;10.570;2022-09-09T07:16:08;19.70;99.90
21312;DHT22;18076;52.154;10.570;2022-09-09T07:18:34;19.60;99.90
21312;DHT22;18076;52.154;10.570;2022-09-09T07:21:00;19.50;99.90
21312;DHT22;18076;52.154;10.570;2022-09-09T07:23:27;19.90;99.90
21312;DHT22;18076;52.154;10.570;2022-09-09T07:25:53;20.50;99.90
21312;DHT22;18076;52.154;10.570;2022-09-09T07:28:19;21.10;99.90
21312;DHT22;18076;52.154;10.570;2022-09-09T07:30:52;21.50;99.90
21312;DHT22;18076;52.154;10.570;2022-09-09T07:33:18;21.50;99.90
21312;DHT22;18076;52.154;10.570;2022-09-09T07:35:45;21.40;99.90
21312;DHT22;18076;52.154;10.570;2022-09-09T07:38:11;21.30;99.90
21312;DHT22;18076;52.154;10.570;2022-09-09T07:40:36;21.00;99.90
21312;DHT22;18076;52.154;10.570;2022-09-09T07:43:02;20.80;99.90
21312;DHT22;18076;52.154;10.570;2022-09-09T07:45:27;20.50;99.90
21312;DHT22;18076;52.154;10.570;2022-09-09T07:47:53;20.40;99.90
21312;DHT22;18076;52.154;10.570;2022-09-09T07:50:20;20.40;99.90
21312;DHT22;18076;52.154;10.570;2022-09-09T07:52:46;20.80;99.90
21312;DHT22;18076;52.154;10.570;2022-09-09T07:55:11;21.40;99.90
21312;DHT22;18076;52.154;10.570;2022-09-09T07:57:37;21.90;99.90
21312;DHT22;18076;52.154;10.570;2022-09-09T08:00:03;22.30;99.90
21312;DHT22;18076;52.154;10.570;2022-09-09T08:02:29;22.80;99.90
21312;DHT22;18076;52.154;10.570;2022-09-09T08:04:55;23.10;99.90
21312;DHT22;18076;52.154;10.570;2022-09-09T08:07:22;23.20;99.90
21312;DHT22;18076;52.154;10.570;2022-09-09T08:09:48;23.30;99.90
21312;DHT22;18076;52.154;10.570;2022-09-09T08:12:14;23.50;99.90
21312;DHT22;18076;52.154;10.570;2022-09-09T08:14:40;23.50;99.90
21312;DHT22;18076;52.154;10.570;2022-09-09T08:17:05;23.60;99.90
21312;DHT22;18076;52.154;10.570;2022-09-09T08:19:31;24.00;99.90
21312;DHT22;18076;52.154;10.570;2022-09-09T08:21:59;23.90;99.90
21312;DHT22;18076;52.154;10.570;2022-09-09T08:24:27;23.90;99.90
21312;DHT22;18076;52.154;10.570;2022-09-09T08:26:52;23.90;99.90
21312;DHT22;18076;52.154;10.570;2022-09-09T08:29:18;24.10;99.90
21312;DHT22;18076;52.154;10.570;2022-09-09T08:34:10;24.40;99.90
21312;DHT22;18076;52.154;10.570;2022-09-09T08:36:37;24.20;99.90
21312;DHT22;18076;52.154;10.570;2022-09-09T08:39:03;23.80;99.90
21312;DHT22;18076;52.154;10.570;2022-09-09T08:44:06;23.10;99.90
21312;DHT22;18076;52.154;10.570;2022-09-09T08:46:35;22.80;99.90
21312;DHT22;18076;52.154;10.570;2022-09-09T08:49:14;23.00;99.90
21312;DHT22;18076;52.154;10.570;2022-09-09T08:51:44;23.40;99.90
21312;DHT22;18076;52.154;10.570;2022-09-09T08:54:09;23.80;99.90
21312;DHT22;18076;52.154;10.570;2022-09-09T08:56:35;24.00;99.90
21312;DHT22;18076;52.154;10.570;2022-09-09T08:59:01;24.00;99.90
21312;DHT22;18076;52.154;10.570;2022-09-09T09:01:49;24.30;99.90
21312;DHT22;18076;52.154;10.570;2022-09-09T09:12:16;24.00;99.90
21312;DHT22;18076;52.154;10.570;2022-09-09T09:14:42;24.00;99.90
21312;DHT22;18076;52.154;10.570;2022-09-09T09:17:11;24.00;99.90
21312;DHT22;18076;52.154;10.570;2022-09-09T09:19:39;23.80;99.90
21312;DHT22;18076;52.154;10.570;2022-09-09T09:24:54;23.70;99.90
21312;DHT22;18076;52.154;10.570;2022-09-09T09:27:25;24.20;99.90
21312;DHT22;18076;52.154;10.570;2022-09-09T09:29:56;24.60;99.90
21312;DHT22;18076;52.154;10.570;2022-09-09T09:32:23;24.90;99.90
21312;DHT22;18076;52.154;10.570;2022-09-09T09:34:54;24.70;99.90
21312;DHT22;18076;52.154;10.570;2022-09-09T09:37:28;24.80;99.90
21312;DHT22;18076;52.154;10.570;2022-09-09T09:39:54;25.10;99.90
21312;DHT22;18076;52.154;10.570;2022-09-09T09:42:20;25.20;99.90
21312;DHT22;18076;52.154;10.570;2022-09-09T09:44:46;25.00;99.90
21312;DHT22;18076;52.154;10.570;2022-09-09T09:47:12;24.90;99.90
21312;DHT22;18076;52.154;10.570;2022-09-09T09:49:38;25.00;99.90
21312;DHT22;18076;52.154;10.570;2022-09-09T09:52:05;25.10;99.90
21312;DHT22;18076;52.154;10.570;2022-09-09T09:54:32;25.20;99.90
21312;DHT22;18076;52.154;10.570;2022-09-09T09:57:11;24.70;99.90
21312;DHT22;18076;52.154;10.570;2022-09-09T09:59:37;24.50;99.90
21312;DHT22;18076;52.154;10.570;2022-09-09T10:02:23;23.90;99.90
21312;DHT22;18076;52.154;10.570;2022-09-09T10:05:00;23.50;99.90
21312;DHT22;18076;52.154;10.570;2022-09-09T10:07:26;23.10;99.90
21312;DHT22;18076;52.154;10.570;2022-09-09T10:09:53;23.10;99.90
21312;DHT22;18076;52.154;10.570;2022-09-09T10:23:13;23.80;99.90
21312;DHT22;18076;52.154;10.570;2022-09-09T10:25:48;23.70;99.90
21312;DHT22;18076;52.154;10.570;2022-09-09T10:28:30;23.70;99.90
21312;DHT22;18076;52.154;10.570;2022-09-09T10:31:11;24.00;99.90
21312;DHT22;18076;52.154;10.570;2022-09-09T10:36:21;24.70;99.90
21312;DHT22;18076;52.154;10.570;2022-09-09T10:39:01;24.90;99.90
21312;DHT22;18076;52.154;10.570;2022-09-09T10:52:42;24.60;99.90
21312;DHT22;18076;52.154;10.570;2022-09-09T10:55:10;24.70;99.90
21312;DHT22;18076;52.154;10.570;2022-09-09T10:57:38;24.60;99.90
21312;DHT22;18076;52.154;10.570;2022-09-09T11:00:13;24.40;99.90
21312;DHT22;18076;52.154;10.570;2022-09-09T11:02:40;24.00;99.90
21312;DHT22;18076;52.154;10.570;2022-09-09T11:05:20;24.00;99.90
21312;DHT22;18076;52.154;10.570;2022-09-09T11:12:59;25.50;99.90
21312;DHT22;18076;52.154;10.570;2022-09-09T11:15:39;25.80;99.90
21312;DHT22;18076;52.154;10.570;2022-09-09T11:18:08;26.30;99.90
21312;DHT22;18076;52.154;10.570;2022-09-09T11:20:36;26.50;99.90
21312;DHT22;18076;52.154;10.570;2022-09-09T11:23:03;26.70;99.90
21312;DHT22;18076;52.154;10.570;2022-09-09T11:25:34;26.50;99.90
21312;DHT22;18076;52.154;10.570;2022-09-09T11:38:28;26.00;99.90
21312;DHT22;18076;52.154;10.570;2022-09-09T11:40:54;26.50;99.90
21312;DHT22;18076;52.154;10.570;2022-09-09T11:43:24;26.60;99.90
21312;DHT22;18076;52.154;10.570;2022-09-09T11:45:52;27.10;99.90
21312;DHT22;18076;52.154;10.570;2022-09-09T11:48:23;26.80;99.90
21312;DHT22;18076;52.154;10.570;2022-09-09T11:50:57;26.60;99.90
21312;DHT22;18076;52.154;10.570;2022-09-09T11:53:23;26.20;99.90
21312;DHT22;18076;52.154;10.570;2022-09-09T11:56:02;26.10;99.90
21312;DHT22;18076;52.154;10.570;2022-09-09T11:58:29;26.10;99.90
21312;DHT22;18076;52.154;10.570;2022-09-09T12:00:57;26.10;99.90
21312;DHT22;18076;52.154;10.570;2022-09-09T12:08:36;26.30;99.20
21312;DHT22;18076;52.154;10.570;2022-09-09T12:11:02;26.10;99.90
21312;DHT22;18076;52.154;10.570;2022-09-09T12:13:31;26.40;99.80
21312;DHT22;18076;52.154;10.570;2022-09-09T12:15:58;26.60;99.40
21312;DHT22;18076;52.154;10.570;2022-09-09T12:18:34;26.70;99.80
21312;DHT22;18076;52.154;10.570;2022-09-09T12:23:50;26.90;98.80
21312;DHT22;18076;52.154;10.570;2022-09-09T12:31:35;26.90;98.30
21312;DHT22;18076;52.154;10.570;2022-09-09T12:36:36;27.10;96.30
21312;DHT22;18076;52.154;10.570;2022-09-09T12:39:28;26.70;96.60
21312;DHT22;18076;52.154;10.570;2022-09-09T12:41:52;26.50;96.70
21312;DHT22;18076;52.154;10.570;2022-09-09T12:44:22;26.60;96.70
21312;DHT22;18076;52.154;10.570;2022-09-09T12:46:47;26.50;96.10
21312;DHT22;18076;52.154;10.570;2022-09-09T12:51:51;26.30;96.00
21312;DHT22;18076;52.154;10.570;2022-09-09T12:54:17;26.10;96.20
21312;DHT22;18076;52.154;10.570;2022-09-09T12:56:47;26.10;97.60
21312;DHT22;18076;52.154;10.570;2022-09-09T12:59:26;26.10;96.50
21312;DHT22;18076;52.154;10.570;2022-09-09T13:01:59;25.90;97.30
21312;DHT22;18076;52.154;10.570;2022-09-09T13:04:25;26.10;97.40
21312;DHT22;18076;52.154;10.570;2022-09-09T13:06:50;26.00;96.60
21312;DHT22;18076;52.154;10.570;2022-09-09T13:09:17;25.30;96.10
21312;DHT22;18076;52.154;10.570;2022-09-09T13:11:44;25.10;96.90
21312;DHT22;18076;52.154;10.570;2022-09-09T13:14:16;25.10;97.40
21312;DHT22;18076;52.154;10.570;2022-09-09T13:16:53;25.20;97.70
21312;DHT22;18076;52.154;10.570;2022-09-09T13:19:19;25.20;97.60
21312;DHT22;18076;52.154;10.570;2022-09-09T13:21:46;25.50;97.70
21312;DHT22;18076;52.154;10.570;2022-09-09T13:24:22;26.40;98.60
21312;DHT22;18076;52.154;10.570;2022-09-09T13:26:59;26.90;96.90
21312;DHT22;18076;52.154;10.570;2022-09-09T13:29:27;26.80;96.00
21312;DHT22;18076;52.154;10.570;2022-09-09T13:31:53;26.70;96.10
21312;DHT22;18076;52.154;10.570;2022-09-09T13:34:26;26.50;95.30
21312;DHT22;18076;52.154;10.570;2022-09-09T13:36:52;26.10;95.00
21312;DHT22;18076;52.154;10.570;2022-09-09T13:39:19;25.40;95.20
21312;DHT22;18076;52.154;10.570;2022-09-09T13:41:45;25.00;96.50
21312;DHT22;18076;52.154;10.570;2022-09-09T13:44:20;24.70;96.30
21312;DHT22;18076;52.154;10.570;2022-09-09T13:46:48;24.50;96.90
21312;DHT22;18076;52.154;10.570;2022-09-09T13:49:24;24.40;97.20
21312;DHT22;18076;52.154;10.570;2022-09-09T13:52:02;24.50;98.20
21312;DHT22;18076;52.154;10.570;2022-09-09T13:54:27;24.90;98.10
21312;DHT22;18076;52.154;10.570;2022-09-09T13:56:53;25.40;95.70
21312;DHT22;18076;52.154;10.570;2022-09-09T13:59:20;25.90;95.50
21312;DHT22;18076;52.154;10.570;2022-09-09T14:01:46;26.10;93.80
21312;DHT22;18076;52.154;10.570;2022-09-09T14:04:11;26.00;93.40
21312;DHT22;18076;52.154;10.570;2022-09-09T14:06:37;26.10;93.60
21312;DHT22;18076;52.154;10.570;2022-09-09T14:09:09;25.80;93.00
21312;DHT22;18076;52.154;10.570;2022-09-09T14:11:35;25.60;93.20
21312;DHT22;18076;52.154;10.570;2022-09-09T14:14:00;25.40;93.00
21312;DHT22;18076;52.154;10.570;2022-09-09T14:16:26;25.20;93.10
21312;DHT22;18076;52.154;10.570;2022-09-09T14:18:53;24.70;93.40
21312;DHT22;18076;52.154;10.570;2022-09-09T14:21:21;24.20;94.10
21312;DHT22;18076;52.154;10.570;2022-09-09T14:23:46;23.90;95.50
21312;DHT22;18076;52.154;10.570;2022-09-09T14:26:13;23.70;96.20
21312;DHT22;18076;52.154;10.570;2022-09-09T14:28:38;23.60;97.10
21312;DHT22;18076;52.154;10.570;2022-09-09T14:31:05;23.50;98.00
21312;DHT22;18076;52.154;10.570;2022-09-09T14:33:31;23.50;99.10
21312;DHT22;18076;52.154;10.570;2022-09-09T14:35:58;23.30;99.70
21312;DHT22;18076;52.154;10.570;2022-09-09T14:38:24;23.30;99.90
21312;DHT22;18076;52.154;10.570;2022-09-09T14:40:50;23.20;99.90
21312;DHT22;18076;52.154;10.570;2022-09-09T14:43:15;23.10;99.90
21312;DHT22;18076;52.154;10.570;2022-09-09T14:45:41;23.00;99.90
21312;DHT22;18076;52.154;10.570;2022-09-09T14:48:07;23.00;99.90
21312;DHT22;18076;52.154;10.570;2022-09-09T14:50:33;23.10;99.90
21312;DHT22;18076;52.154;10.570;2022-09-09T14:53:00;23.00;99.90
21312;DHT22;18076;52.154;10.570;2022-09-09T14:55:25;23.00;99.90
21312;DHT22;18076;52.154;10.570;2022-09-09T14:57:53;22.80;99.90
21312;DHT22;18076;52.154;10.570;2022-09-09T15:00:19;22.80;99.90
21312;DHT22;18076;52.154;10.570;2022-09-09T15:02:45;22.80;99.90
21312;DHT22;18076;52.154;10.570;2022-09-09T15:05:10;22.80;99.90
21312;DHT22;18076;52.154;10.570;2022-09-09T15:07:36;22.80;99.90
21312;DHT22;18076;52.154;10.570;2022-09-09T15:10:02;22.70;99.90
21312;DHT22;18076;52.154;10.570;2022-09-09T15:12:28;22.80;99.90
21312;DHT22;18076;52.154;10.570;2022-09-09T15:14:53;22.80;99.90
21312;DHT22;18076;52.154;10.570;2022-09-09T15:17:20;22.60;99.90
21312;DHT22;18076;52.154;10.570;2022-09-09T15:19:45;22.40;99.90
21312;DHT22;18076;52.154;10.570;2022-09-09T15:22:11;22.30;99.90
21312;DHT22;18076;52.154;10.570;2022-09-09T15:24:36;22.30;99.90
21312;DHT22;18076;52.154;10.570;2022-09-09T15:27:02;22.40;99.90
21312;DHT22;18076;52.154;10.570;2022-09-09T15:29:28;22.30;99.90
21312;DHT22;18076;52.154;10.570;2022-09-09T15:31:54;22.20;99.90
21312;DHT22;18076;52.154;10.570;2022-09-09T15:34:20;22.30;99.90
21312;DHT22;18076;52.154;10.570;2022-09-09T15:36:46;22.50;99.90
21312;DHT22;18076;52.154;10.570;2022-09-09T15:39:13;22.60;99.90
21312;DHT22;18076;52.154;10.570;2022-09-09T15:41:44;22.60;99.90
21312;DHT22;18076;52.154;10.570;2022-09-09T15:44:10;22.90;99.90
21312;DHT22;18076;52.154;10.570;2022-09-09T15:51:38;22.70;99.90
21312;DHT22;18076;52.154;10.570;2022-09-09T15:54:04;22.80;99.90
21312;DHT22;18076;52.154;10.570;2022-09-09T15:56:30;23.00;99.90
21312;DHT22;18076;52.154;10.570;2022-09-09T15:58:56;23.20;99.90
21312;DHT22;18076;52.154;10.570;2022-09-09T16:01:22;23.40;99.90
21312;DHT22;18076;52.154;10.570;2022-09-09T16:03:48;23.50;99.90
21312;DHT22;18076;52.154;10.570;2022-09-09T16:06:16;23.40;99.90
21312;DHT22;18076;52.154;10.570;2022-09-09T16:08:42;23.50;99.90
21312;DHT22;18076;52.154;10.570;2022-09-09T16:11:09;23.50;99.90
21312;DHT22;18076;52.154;10.570;2022-09-09T16:13:38;23.50;99.90
21312;DHT22;18076;52.154;10.570;2022-09-09T16:16:07;23.40;99.90
21312;DHT22;18076;52.154;10.570;2022-09-09T16:18:33;23.30;99.90
21312;DHT22;18076;52.154;10.570;2022-09-09T16:20:59;23.20;99.90
21312;DHT22;18076;52.154;10.570;2022-09-09T16:23:25;23.00;99.90
21312;DHT22;18076;52.154;10.570;2022-09-09T16:25:54;22.70;99.90
21312;DHT22;18076;52.154;10.570;2022-09-09T16:28:20;22.70;99.90
21312;DHT22;18076;52.154;10.570;2022-09-09T16:30:46;22.80;99.90
21312;DHT22;18076;52.154;10.570;2022-09-09T16:33:11;22.80;99.90
21312;DHT22;18076;52.154;10.570;2022-09-09T16:35:40;22.90;99.90
21312;DHT22;18076;52.154;10.570;2022-09-09T16:38:05;22.80;99.90
21312;DHT22;18076;52.154;10.570;2022-09-09T16:40:35;22.60;99.90
21312;DHT22;18076;52.154;10.570;2022-09-09T16:43:02;22.60;99.90
21312;DHT22;18076;52.154;10.570;2022-09-09T16:45:27;22.60;99.90
21312;DHT22;18076;52.154;10.570;2022-09-09T16:47:53;22.40;99.90
21312;DHT22;18076;52.154;10.570;2022-09-09T16:50:19;22.30;99.90
21312;DHT22;18076;52.154;10.570;2022-09-09T16:52:45;22.20;99.90
21312;DHT22;18076;52.154;10.570;2022-09-09T16:55:10;22.10;99.90
21312;DHT22;18076;52.154;10.570;2022-09-09T16:57:36;22.00;99.90
21312;DHT22;18076;52.154;10.570;2022-09-09T17:00:02;22.00;99.90
21312;DHT22;18076;52.154;10.570;2022-09-09T17:02:30;22.00;99.90
21312;DHT22;18076;52.154;10.570;2022-09-09T17:04:55;21.90;99.90
21312;DHT22;18076;52.154;10.570;2022-09-09T17:07:21;21.90;99.90
21312;DHT22;18076;52.154;10.570;2022-09-09T17:09:48;21.90;99.90
21312;DHT22;18076;52.154;10.570;2022-09-09T17:12:13;21.80;99.90
21312;DHT22;18076;52.154;10.570;2022-09-09T17:14:39;21.80;99.90
21312;DHT22;18076;52.154;10.570;2022-09-09T17:17:04;21.70;99.90
21312;DHT22;18076;52.154;10.570;2022-09-09T17:19:30;21.60;99.90
21312;DHT22;18076;52.154;10.570;2022-09-09T17:21:56;21.60;99.90
21312;DHT22;18076;52.154;10.570;2022-09-09T17:24:24;21.60;99.90
21312;DHT22;18076;52.154;10.570;2022-09-09T17:26:51;21.60;99.90